createdAt,value
2022-11-19T00:01:32.773Z,101124.69
2022-11-19T00:04:02.988Z,101119.97
2022-11-19T00:06:34.516Z,101128.44
2022-11-19T00:09:06.404Z,101128.25
2022-11-19T00:11:56.253Z,101125.81
2022-11-19T00:14:26.734Z,101122.91
2022-11-19T00:16:57.134Z,101119.88
2022-11-19T00:19:27.514Z,101119.97
2022-11-19T00:21:57.857Z,101122.72
2022-11-19T00:24:31.342Z,101124.66
2022-11-19T00:27:01.793Z,101126.63
2022-11-19T00:29:32.518Z,101133.53
2022-11-19T00:32:02.792Z,101132.41
2022-11-19T00:34:33.153Z,101132.94
2022-11-19T00:37:03.640Z,101134.78
2022-11-19T00:39:34.407Z,101134.47
2022-11-19T00:42:05.038Z,101143.75
2022-11-19T00:44:37.457Z,101140.72
2022-11-19T00:47:08.451Z,101139.28
2022-11-19T00:49:38.960Z,101137.13
2022-11-19T00:52:09.396Z,101142.53
2022-11-19T00:54:39.900Z,101146.94
2022-11-19T00:57:10.066Z,101142.94
2022-11-19T00:59:40.194Z,101140.91
2022-11-19T01:02:10.368Z,101137.34
2022-11-19T01:04:40.752Z,101144.19
2022-11-19T01:07:11.156Z,101148.03
2022-11-19T01:09:41.519Z,101140.47
2022-11-19T01:12:11.866Z,101147.03
2022-11-19T01:14:42.129Z,101147.44
2022-11-19T01:17:12.584Z,101153.06
2022-11-19T01:19:43.016Z,101161.63
2022-11-19T01:22:13.078Z,101155.59
2022-11-19T01:24:43.373Z,101164.09
2022-11-19T01:27:13.713Z,101166.66
2022-11-19T01:29:44.048Z,101167.16
2022-11-19T01:32:15.491Z,101174.00
2022-11-19T01:34:46.043Z,101180.31
2022-11-19T01:37:16.487Z,101174.41
2022-11-19T01:39:46.816Z,101175.19
2022-11-19T01:42:52.701Z,101179.59
2022-11-19T01:45:29.566Z,101177.66
2022-11-19T01:48:09.004Z,101175.13
2022-11-19T01:50:48.162Z,101181.66
2022-11-19T01:53:22.607Z,101187.97
2022-11-19T01:55:53.635Z,101185.66
2022-11-19T01:58:26.854Z,101193.81
2022-11-19T02:00:57.290Z,101186.34
2022-11-19T02:03:30.911Z,101186.53
2022-11-19T02:06:04.511Z,101188.91
2022-11-19T02:08:42.241Z,101185.81
2022-11-19T02:11:18.512Z,101182.19
2022-11-19T02:14:10.381Z,101176.25
2022-11-19T02:17:02.306Z,101181.16
2022-11-19T02:20:10.297Z,101169.22
2022-11-19T02:22:59.077Z,101172.88
2022-11-19T02:25:41.555Z,101181.16
2022-11-19T02:28:34.519Z,101178.09
2022-11-19T02:31:24.178Z,101175.94
2022-11-19T02:34:03.257Z,101179.94
2022-11-19T02:37:23.161Z,101173.69
2022-11-19T02:40:05.281Z,101169.09
2022-11-19T02:42:46.971Z,101158.16
2022-11-19T02:45:47.151Z,101150.91
2022-11-19T02:48:25.463Z,101160.03
2022-11-19T02:51:00.108Z,101149.59
2022-11-19T02:53:30.916Z,101141.41
2022-11-19T02:56:13.811Z,101132.91
2022-11-19T02:59:13.664Z,101127.13
2022-11-19T03:02:06.761Z,101118.69
2022-11-19T03:04:37.423Z,101113.31
2022-11-19T03:07:12.945Z,101115.94
2022-11-19T03:09:48.703Z,101110.03
2022-11-19T03:12:32.850Z,101104.09
2022-11-19T03:15:30.761Z,101097.03
2022-11-19T03:18:04.265Z,101099.59
2022-11-19T03:20:47.520Z,101095.78
2022-11-19T03:23:45.526Z,101089.78
2022-11-19T03:26:32.379Z,101083.41
2022-11-19T03:29:08.767Z,101082.38
2022-11-19T03:31:42.427Z,101080.13
2022-11-19T03:34:20.575Z,101082.34
2022-11-19T03:36:53.675Z,101070.25
2022-11-19T03:39:25.112Z,101067.44
2022-11-19T03:41:55.725Z,101065.16
2022-11-19T03:44:55.783Z,101067.09
2022-11-19T03:47:32.707Z,101053.19
2022-11-19T03:50:14.451Z,101050.63
2022-11-19T03:52:45.973Z,101049.81
2022-11-19T03:55:16.715Z,101044.22
2022-11-19T03:57:47.788Z,101043.69
2022-11-19T04:02:09.443Z,101041.75
2022-11-19T04:04:41.144Z,101035.88
2022-11-19T04:07:17.245Z,101030.31
2022-11-19T04:09:47.692Z,101022.84
2022-11-19T04:12:21.256Z,101018.63
2022-11-19T04:14:52.023Z,101014.41
2022-11-19T04:17:22.929Z,101000.88
2022-11-19T04:19:53.185Z,100999.88
2022-11-19T04:22:23.472Z,100997.31
2022-11-19T04:24:53.684Z,100986.72
2022-11-19T04:27:24.034Z,100990.19
2022-11-19T04:29:54.538Z,100989.84
2022-11-19T04:32:25.919Z,100972.16
2022-11-19T04:34:56.260Z,100971.03
2022-11-19T04:37:26.694Z,100958.69
2022-11-19T04:39:57.048Z,100964.66
2022-11-19T04:42:27.517Z,100957.72
2022-11-19T04:44:57.845Z,100956.09
2022-11-19T04:47:28.027Z,100942.28
2022-11-19T04:49:58.269Z,100933.66
2022-11-19T04:52:28.562Z,100932.38
2022-11-19T04:54:58.836Z,100923.44
2022-11-19T04:57:29.110Z,100923.50
2022-11-19T04:59:59.341Z,100909.19
2022-11-19T05:02:29.667Z,100905.91
2022-11-19T05:04:59.960Z,100908.56
2022-11-19T05:07:30.456Z,100902.00
2022-11-19T05:10:00.592Z,100886.59
2022-11-19T05:12:30.679Z,100877.47
2022-11-19T05:15:01.989Z,100876.69
2022-11-19T05:17:32.863Z,100871.31
2022-11-19T05:20:03.286Z,100869.53
2022-11-19T05:22:33.630Z,100871.16
2022-11-19T05:25:03.927Z,100854.91
2022-11-19T05:27:34.053Z,100852.97
2022-11-19T05:30:04.600Z,100841.94
2022-11-19T05:32:34.869Z,100841.59
2022-11-19T05:35:08.307Z,100836.91
2022-11-19T05:37:38.765Z,100832.69
2022-11-19T05:40:09.886Z,100835.28
2022-11-19T05:42:40.236Z,100829.13
2022-11-19T05:45:11.499Z,100823.09
2022-11-19T05:47:47.294Z,100815.97
2022-11-19T05:50:18.951Z,100799.03
2022-11-19T05:52:53.042Z,100798.25
2022-11-19T05:55:23.709Z,100784.94
2022-11-19T05:57:54.107Z,100783.31
2022-11-19T06:00:24.560Z,100775.66
2022-11-19T06:02:54.931Z,100771.63
2022-11-19T06:05:25.285Z,100770.78
2022-11-19T06:07:55.572Z,100768.03
2022-11-19T06:10:25.862Z,100749.19
2022-11-19T06:12:56.228Z,100754.72
2022-11-19T06:15:27.218Z,100747.72
2022-11-19T06:17:58.360Z,100731.28
2022-11-19T06:20:28.814Z,100738.44
2022-11-19T06:23:00.198Z,100737.34
2022-11-19T06:25:30.111Z,100720.47
2022-11-19T06:28:00.167Z,100721.41
2022-11-19T06:30:30.514Z,100714.28
2022-11-19T06:33:00.861Z,100708.44
2022-11-19T06:35:31.092Z,100699.31
2022-11-19T06:38:01.572Z,100699.00
2022-11-19T06:40:31.998Z,100691.50
2022-11-19T06:43:02.191Z,100685.31
2022-11-19T06:45:32.590Z,100680.44
2022-11-19T06:48:03.054Z,100686.31
2022-11-19T06:50:34.065Z,100680.28
2022-11-19T06:53:04.350Z,100675.03
2022-11-19T06:55:34.872Z,100677.34
2022-11-19T06:58:09.730Z,100677.81
2022-11-19T07:00:40.274Z,100678.63
2022-11-19T07:03:10.757Z,100670.69
2022-11-19T07:05:41.168Z,100659.63
2022-11-19T07:08:11.575Z,100660.09
2022-11-19T07:10:42.609Z,100651.34
2022-11-19T07:13:13.159Z,100648.88
2022-11-19T07:15:43.730Z,100641.06
2022-11-19T07:18:14.374Z,100649.34
2022-11-19T07:20:47.324Z,100639.44
2022-11-19T07:23:17.632Z,100631.47
2022-11-19T07:25:47.976Z,100623.66
2022-11-19T07:28:18.248Z,100629.84
2022-11-19T07:30:48.670Z,100621.69
2022-11-19T07:33:18.974Z,100618.56
2022-11-19T07:35:49.306Z,100617.91
2022-11-19T07:38:19.636Z,100613.03
2022-11-19T07:40:59.967Z,100606.09
2022-11-19T07:43:31.486Z,100606.22
2022-11-19T07:46:01.852Z,100609.28
2022-11-19T07:48:33.073Z,100600.03
2022-11-19T07:51:03.507Z,100605.09
2022-11-19T07:53:33.951Z,100608.81
2022-11-19T07:56:05.245Z,100597.06
2022-11-19T07:58:35.495Z,100591.72
2022-11-19T08:01:14.307Z,100596.41
2022-11-19T08:03:45.110Z,100594.31
2022-11-19T08:06:21.280Z,100590.41
2022-11-19T08:08:51.705Z,100585.56
2022-11-19T08:11:22.399Z,100590.22
2022-11-19T08:13:52.922Z,100584.38
2022-11-19T08:16:42.043Z,100583.47
2022-11-19T08:19:15.094Z,100572.22
2022-11-19T08:21:49.700Z,100571.25
2022-11-19T08:24:23.309Z,100563.75
2022-11-19T08:26:54.500Z,100565.38
2022-11-19T08:29:25.999Z,100561.97
2022-11-19T08:31:56.361Z,100567.31
2022-11-19T08:34:27.246Z,100567.63
2022-11-19T08:36:57.626Z,100578.00
2022-11-19T08:39:29.130Z,100591.34
2022-11-19T08:42:17.835Z,100584.06
2022-11-19T08:44:48.146Z,100592.50
2022-11-19T08:47:18.556Z,100600.16
2022-11-19T08:49:49.079Z,100610.72
2022-11-19T08:52:19.548Z,100608.97
2022-11-19T08:54:50.082Z,100605.88
2022-11-19T08:57:21.525Z,100592.75
2022-11-19T08:59:51.744Z,100577.47
2022-11-19T09:02:21.929Z,100575.56
2022-11-19T09:04:52.109Z,100564.34
2022-11-19T09:07:22.551Z,100567.94
2022-11-19T09:09:53.009Z,100568.22
2022-11-19T09:12:23.428Z,100563.34
2022-11-19T09:14:53.807Z,100572.00
2022-11-19T09:17:24.070Z,100570.72
2022-11-19T09:19:54.392Z,100578.47
2022-11-19T09:22:24.965Z,100582.25
2022-11-19T09:24:55.397Z,100592.31
2022-11-19T09:27:25.687Z,100599.94
2022-11-19T09:29:56.134Z,100599.28
2022-11-19T09:32:26.661Z,100607.91
2022-11-19T09:34:56.946Z,100596.88
2022-11-19T09:37:27.319Z,100607.13
2022-11-19T09:39:57.607Z,100604.97
2022-11-19T09:42:50.001Z,100608.34
2022-11-19T09:45:37.979Z,100610.94
2022-11-19T09:48:36.031Z,100611.63
2022-11-19T09:51:32.229Z,100612.41
2022-11-19T09:54:10.708Z,100614.88
2022-11-19T09:56:52.705Z,100615.03
2022-11-19T09:59:38.508Z,100621.34
2022-11-19T10:02:24.094Z,100620.41
2022-11-19T10:04:55.200Z,100623.19
2022-11-19T10:07:57.926Z,100623.34
2022-11-19T10:10:45.054Z,100637.97
2022-11-19T10:13:34.977Z,100636.34
2022-11-19T10:16:05.484Z,100665.50
2022-11-19T10:18:42.350Z,100711.81
2022-11-19T10:21:34.321Z,100724.84
2022-11-19T10:24:21.288Z,100716.34
2022-11-19T10:27:07.236Z,100707.59
2022-11-19T10:29:42.670Z,100715.69
2022-11-19T10:32:26.309Z,100706.13
2022-11-19T10:35:00.882Z,100731.47
2022-11-19T10:37:39.958Z,100731.31
2022-11-19T10:40:23.758Z,100746.91
2022-11-19T10:43:23.460Z,100726.75
2022-11-19T10:45:54.763Z,100726.06
2022-11-19T10:48:27.617Z,100720.09
2022-11-19T10:51:01.321Z,100722.47
2022-11-19T10:53:39.252Z,100709.78
2022-11-19T10:56:17.086Z,100700.09
2022-11-19T10:58:58.767Z,100704.47
2022-11-19T11:01:37.302Z,100702.69
2022-11-19T11:04:10.330Z,100711.09
2022-11-19T11:07:01.056Z,100723.94
2022-11-19T11:09:39.644Z,100730.25
2022-11-19T11:12:46.751Z,100731.06
2022-11-19T11:15:24.449Z,100739.03
2022-11-19T11:18:11.596Z,100741.91
2022-11-19T11:20:47.896Z,100751.31
2022-11-19T11:23:19.975Z,100760.38
2022-11-19T11:26:11.236Z,100752.91
2022-11-19T11:28:57.290Z,100763.03
2022-11-19T11:31:49.453Z,100768.81
2022-11-19T11:34:28.676Z,100769.47
2022-11-19T11:37:00.176Z,100771.09
2022-11-19T11:39:42.169Z,100780.53
2022-11-19T11:42:17.854Z,100783.09
2022-11-19T11:45:01.236Z,100782.13
2022-11-19T11:47:37.466Z,100786.69
2022-11-19T11:50:20.910Z,100794.03
2022-11-19T11:52:56.628Z,100794.63
2022-11-19T11:55:26.893Z,100802.91
2022-11-19T11:58:00.147Z,100806.66
2022-11-19T12:00:43.462Z,100797.84
2022-11-19T12:03:22.916Z,100806.97
2022-11-19T12:06:13.806Z,100816.09
2022-11-19T12:08:47.378Z,100814.44
2022-11-19T12:11:56.929Z,100824.22
2022-11-19T12:14:30.067Z,100819.97
2022-11-19T12:17:28.725Z,100832.63
2022-11-19T12:20:23.591Z,100849.19
2022-11-19T12:23:25.040Z,100854.38
2022-11-19T12:26:01.011Z,100856.50
2022-11-19T12:28:52.620Z,100869.31
2022-11-19T12:31:49.980Z,100875.47
2022-11-19T12:34:57.416Z,100873.84
2022-11-19T12:37:35.307Z,100888.44
2022-11-19T12:40:24.135Z,100890.41
2022-11-19T12:43:33.494Z,100889.41
2022-11-19T12:46:25.454Z,100897.84
2022-11-19T12:49:24.956Z,100900.31
2022-11-19T12:52:26.931Z,100909.38
2022-11-19T12:55:20.142Z,100921.38
2022-11-19T12:57:59.440Z,100919.47
2022-11-19T13:00:36.871Z,100926.75
2022-11-19T13:03:33.808Z,100934.09
2022-11-19T13:06:15.360Z,100936.66
2022-11-19T13:09:19.682Z,100939.69
2022-11-19T13:12:05.451Z,100953.47
2022-11-19T13:15:53.853Z,100948.75
2022-11-19T13:18:25.138Z,100956.59
2022-11-19T13:20:58.404Z,100954.59
2022-11-19T13:23:36.063Z,100957.97
2022-11-19T13:26:13.540Z,100956.88
2022-11-19T13:29:02.535Z,100958.84
2022-11-19T13:31:48.963Z,100959.66
2022-11-19T13:34:21.751Z,100961.09
2022-11-19T13:37:02.039Z,100959.81
2022-11-19T13:39:41.841Z,100972.66
2022-11-19T13:42:31.962Z,100972.81
2022-11-19T13:45:02.805Z,100973.78
2022-11-19T13:47:48.106Z,100980.59
2022-11-19T13:50:32.530Z,100973.44
2022-11-19T13:53:15.223Z,100979.19
2022-11-19T13:55:47.346Z,100982.69
2022-11-19T13:58:17.774Z,100980.44
2022-11-19T14:01:11.056Z,100982.56
2022-11-19T14:04:05.520Z,100979.81
2022-11-19T14:07:11.932Z,100993.75
2022-11-19T14:10:00.821Z,100989.84
2022-11-19T14:12:38.472Z,100990.66
2022-11-19T14:15:48.253Z,100992.09
2022-11-19T14:18:54.915Z,101000.88
2022-11-19T14:21:46.446Z,100995.38
2022-11-19T14:24:49.463Z,101004.16
2022-11-19T14:27:19.901Z,101001.34
2022-11-19T14:29:50.076Z,101013.53
2022-11-19T14:32:21.687Z,101019.50
2022-11-19T14:35:03.759Z,101021.56
2022-11-19T14:37:39.758Z,101019.66
2022-11-19T14:40:26.417Z,101024.47
2022-11-19T14:43:20.903Z,101020.56
2022-11-19T14:46:06.290Z,101022.22
2022-11-19T14:48:42.619Z,101023.84
2022-11-19T14:51:29.425Z,101016.91
2022-11-19T14:54:18.075Z,101021.72
2022-11-19T14:57:01.666Z,101024.38
2022-11-19T14:59:37.328Z,101021.66
2022-11-19T15:02:26.097Z,101005.19
2022-11-19T15:05:23.339Z,101011.38
2022-11-19T15:08:14.793Z,101012.28
2022-11-19T15:11:06.703Z,101013.44
2022-11-19T15:13:42.801Z,101011.31
2022-11-19T15:16:19.593Z,101015.69
2022-11-19T15:18:49.962Z,101023.66
2022-11-19T15:21:55.597Z,101017.34
2022-11-19T15:24:29.148Z,101011.31
2022-11-19T15:27:24.521Z,101020.72
2022-11-19T15:30:09.508Z,101019.88
2022-11-19T15:32:55.255Z,101014.69
2022-11-19T15:35:43.725Z,101013.84
2022-11-19T15:38:20.265Z,101006.72
2022-11-19T15:40:53.913Z,101008.66
2022-11-19T15:43:29.655Z,101009.78
2022-11-19T15:46:22.925Z,101009.78
2022-11-19T15:49:23.060Z,101001.50
2022-11-19T15:52:00.137Z,101005.41
2022-11-19T15:54:35.283Z,101002.34
2022-11-19T15:57:25.586Z,101000.72
2022-11-19T16:00:03.797Z,101003.75
2022-11-19T16:02:42.979Z,100996.59
2022-11-19T16:05:26.562Z,100991.75
2022-11-19T16:07:58.956Z,100990.28
2022-11-19T16:10:35.888Z,100989.97
2022-11-19T16:13:45.189Z,100982.63
2022-11-19T16:16:47.357Z,100977.28
2022-11-19T16:19:19.509Z,100984.28
2022-11-19T16:22:00.899Z,100978.41
2022-11-19T16:24:51.380Z,100976.78
2022-11-19T16:27:26.655Z,100967.72
2022-11-19T16:29:57.280Z,100968.84
2022-11-19T16:32:30.104Z,100967.38
2022-11-19T16:35:14.638Z,100972.53
2022-11-19T16:37:45.079Z,100964.91
2022-11-19T16:40:18.188Z,100960.56
2022-11-19T16:43:02.750Z,100954.84
2022-11-19T16:45:35.114Z,100959.34
2022-11-19T16:48:05.574Z,100962.63
2022-11-19T16:50:46.520Z,100953.66
2022-11-19T16:53:49.318Z,100957.38
2022-11-19T16:56:19.715Z,100970.03
2022-11-19T16:58:50.154Z,100966.25
2022-11-19T17:01:23.440Z,100966.25
2022-11-19T17:04:05.475Z,100969.84
2022-11-19T17:06:39.334Z,100966.59
2022-11-19T17:09:09.711Z,100972.09
2022-11-19T17:12:02.522Z,100970.81
2022-11-19T17:14:38.503Z,100964.16
2022-11-19T17:17:41.384Z,100952.63
2022-11-19T17:20:32.610Z,100954.72
2022-11-19T17:23:04.556Z,100951.56
2022-11-19T17:25:35.978Z,100954.34
2022-11-19T17:28:07.017Z,100952.69
2022-11-19T17:30:37.286Z,100940.94
2022-11-19T17:33:08.056Z,100935.41
2022-11-19T17:35:44.726Z,100938.00
2022-11-19T17:38:32.811Z,100944.34
2022-11-19T17:41:05.313Z,100937.19
2022-11-19T17:43:55.184Z,100931.66
2022-11-19T17:46:27.284Z,100933.94
2022-11-19T17:48:57.796Z,100933.94
2022-11-19T17:51:29.245Z,100928.09
2022-11-19T17:54:00.056Z,100925.66
2022-11-19T17:56:31.894Z,100917.38
2022-11-19T17:59:02.504Z,100910.56
2022-11-19T18:01:32.815Z,100908.59
2022-11-19T18:04:02.989Z,100898.34
2022-11-19T18:06:33.022Z,100896.75
2022-11-19T18:09:03.092Z,100895.31
2022-11-19T18:11:33.776Z,100890.59
2022-11-19T18:14:05.485Z,100886.53
2022-11-19T18:16:40.486Z,100888.47
2022-11-19T18:19:16.862Z,100877.44
2022-11-19T18:21:48.330Z,100875.50
2022-11-19T18:24:19.100Z,100870.31
2022-11-19T18:26:49.892Z,100879.72
2022-11-19T18:29:20.544Z,100868.97
2022-11-19T18:31:55.999Z,100863.16
2022-11-19T18:34:27.540Z,100862.31
2022-11-19T18:36:57.715Z,100854.06
2022-11-19T18:39:28.068Z,100856.81
2022-11-19T18:41:58.577Z,100845.59
2022-11-19T18:44:37.647Z,100836.19
2022-11-19T18:47:10.607Z,100843.84
2022-11-19T18:49:41.319Z,100844.16
2022-11-19T18:52:17.096Z,100836.69
2022-11-19T18:54:47.843Z,100840.09
2022-11-19T18:57:18.621Z,100834.91
2022-11-19T18:59:48.882Z,100818.34
2022-11-19T19:02:19.291Z,100819.94
2022-11-19T19:04:51.000Z,100812.00
2022-11-19T19:07:21.775Z,100814.75
2022-11-19T19:09:52.082Z,100806.16
2022-11-19T19:12:23.668Z,100797.69
2022-11-19T19:14:57.034Z,100801.28
2022-11-19T19:17:28.517Z,100789.72
2022-11-19T19:19:58.522Z,100781.13
2022-11-19T19:22:28.648Z,100782.59
2022-11-19T19:24:59.011Z,100780.13
2022-11-19T19:27:29.327Z,100779.84
2022-11-19T19:29:59.847Z,100775.44
2022-11-19T19:32:30.895Z,100774.13
2022-11-19T19:35:01.116Z,100762.78
2022-11-19T19:37:31.725Z,100774.13
2022-11-19T19:40:01.957Z,100776.06
2022-11-19T19:42:32.212Z,100766.66
2022-11-19T19:45:02.468Z,100759.53
2022-11-19T19:47:33.397Z,100759.53
2022-11-19T19:50:03.592Z,100757.59
2022-11-19T19:52:33.779Z,100770.88
2022-11-19T19:55:03.819Z,100754.84
2022-11-19T19:57:33.835Z,100763.13
2022-11-19T20:00:03.939Z,100754.63
2022-11-19T20:02:41.981Z,100758.53
2022-11-19T20:05:12.453Z,100760.81
2022-11-19T20:07:42.802Z,100765.66
2022-11-19T20:10:13.013Z,100764.38
2022-11-19T20:13:01.364Z,100755.28
2022-11-19T20:15:31.684Z,100759.81
2022-11-19T20:18:02.136Z,100766.94
2022-11-19T20:20:32.427Z,100762.22
2022-11-19T20:23:02.663Z,100759.19
2022-11-19T20:25:32.987Z,100764.19
2022-11-19T20:28:03.388Z,100753.47
2022-11-19T20:30:33.600Z,100751.19
2022-11-19T20:33:03.944Z,100750.19
2022-11-19T20:35:34.173Z,100743.25
2022-11-19T20:38:04.506Z,100737.75
2022-11-19T20:40:34.786Z,100745.50
2022-11-19T20:43:23.990Z,100745.50
2022-11-19T20:45:54.256Z,100746.13
2022-11-19T20:48:24.530Z,100740.63
2022-11-19T20:50:59.839Z,100747.88
2022-11-19T20:53:30.094Z,100742.25
2022-11-19T20:56:05.609Z,100730.22
2022-11-19T20:58:36.370Z,100733.81
2022-11-19T21:01:09.578Z,100730.72
2022-11-19T21:03:40.344Z,100739.50
2022-11-19T21:06:11.086Z,100750.53
2022-11-19T21:08:41.321Z,100756.22
2022-11-19T21:11:14.748Z,100758.16
2022-11-19T21:13:46.466Z,100756.53
2022-11-19T21:16:19.610Z,100762.06
2022-11-19T21:18:51.046Z,100752.47
2022-11-19T21:21:23.484Z,100749.22
2022-11-19T21:23:55.800Z,100743.09
2022-11-19T21:26:28.236Z,100738.25
2022-11-19T21:29:00.556Z,100737.41
2022-11-19T21:31:50.519Z,100733.03
2022-11-19T21:34:24.805Z,100719.56
2022-11-19T21:36:58.160Z,100724.47
2022-11-19T21:39:28.739Z,100725.44
2022-11-19T21:41:59.117Z,100725.44
2022-11-19T21:44:30.347Z,100725.59
2022-11-19T21:47:00.232Z,100725.72
2022-11-19T21:49:30.355Z,100722.16
2022-11-19T21:54:38.342Z,100740.28
2022-11-19T21:57:08.565Z,100741.06
2022-11-19T21:59:38.847Z,100743.16
2022-11-19T22:02:09.163Z,100750.81
2022-11-19T22:04:39.652Z,100748.84
2022-11-19T22:07:09.910Z,100739.78
2022-11-19T22:09:40.247Z,100748.22
2022-11-19T22:12:10.430Z,100751.59
2022-11-19T22:14:40.675Z,100756.81
2022-11-19T22:17:10.952Z,100761.19
2022-11-19T22:19:41.201Z,100760.69
2022-11-19T22:22:11.404Z,100773.66
2022-11-19T22:24:41.642Z,100773.34
2022-11-19T22:27:11.928Z,100777.25
2022-11-19T22:29:42.341Z,100778.88
2022-11-19T22:32:12.705Z,100782.41
2022-11-19T22:34:43.061Z,100786.81
2022-11-19T22:37:13.360Z,100791.53
2022-11-19T22:39:43.598Z,100795.41
2022-11-19T22:42:14.127Z,100796.53
2022-11-19T22:44:44.718Z,100794.28
2022-11-19T22:47:16.714Z,100795.41
2022-11-19T22:49:46.935Z,100809.47
2022-11-19T22:52:18.241Z,100819.88
2022-11-19T22:54:48.541Z,100821.63
2022-11-19T22:57:18.799Z,100823.28
2022-11-19T22:59:48.877Z,100828.47
2022-11-19T23:02:18.892Z,100829.91
2022-11-19T23:04:48.996Z,100831.53
2022-11-19T23:07:19.068Z,100842.06
2022-11-19T23:09:49.193Z,100837.06
2022-11-19T23:12:37.644Z,100846.44
2022-11-19T23:15:08.233Z,100847.28
2022-11-19T23:17:45.533Z,100853.59
2022-11-19T23:20:15.853Z,100861.34
2022-11-19T23:22:46.034Z,100862.81
2022-11-19T23:25:16.183Z,100860.56
2022-11-19T23:27:46.414Z,100858.59
2022-11-19T23:30:16.629Z,100866.88
2022-11-19T23:32:46.947Z,100870.13
2022-11-19T23:35:17.321Z,100877.09
2022-11-19T23:37:47.643Z,100871.06
2022-11-19T23:40:17.973Z,100871.25
2022-11-19T23:42:51.844Z,100879.34
2022-11-19T23:45:22.466Z,100869.94
2022-11-19T23:47:53.164Z,100881.59
2022-11-19T23:50:23.408Z,100872.69
2022-11-19T23:52:53.663Z,100881.59
2022-11-19T23:55:23.876Z,100877.72
2022-11-19T23:57:54.123Z,100883.72
